Time;durP1;ratioP1;P1;durP2;ratioP2;P2;SDS_P1;SDS_P2;PMS_P1;PMS_P2;Temp;Humidity;BMP_temperature;BMP_pressure;BME280_temperature;BME280_humidity;BME280_pressure;Samples;Min_cycle;Max_cycle;Signal;HPM_P1;HPM_P2
2023/12/02 00:00:16;;;;;;;1999.90;999.90;;;;;;;3.62;98.32;95869.47;5116815;28;20508;-62
2023/12/02 00:02:43;;;;;;;1999.90;999.90;;;;;;;3.72;98.82;95877.88;5116756;28;20046;-62
2023/12/02 00:05:11;;;;;;;1999.90;999.90;;;;;;;3.71;98.63;95884.78;5116733;28;20048;-63
2023/12/02 00:07:39;;;;;;;1999.90;999.90;;;;;;;3.74;98.34;95876.97;5116658;28;20123;-63
2023/12/02 00:10:08;;;;;;;1999.90;999.90;;;;;;;3.82;98.00;95891.47;5116787;28;20112;-63
2023/12/02 00:12:35;;;;;;;1999.90;999.90;;;;;;;3.82;96.37;95887.13;5116587;28;20047;-64
2023/12/02 00:15:02;;;;;;;1999.90;999.90;;;;;;;3.66;96.35;95879.72;5116512;28;20048;-61
2023/12/02 00:17:30;;;;;;;1999.90;999.90;;;;;;;3.73;96.90;95882.19;5116497;28;20134;-64
2023/12/02 00:19:57;;;;;;;1999.90;999.90;;;;;;;3.77;97.69;95876.88;5116418;28;20091;-60
2023/12/02 00:22:24;;;;;;;1999.90;999.90;;;;;;;3.79;97.52;95867.38;5116416;28;20044;-61
2023/12/02 00:24:52;;;;;;;1999.90;999.90;;;;;;;3.83;97.98;95864.72;5116458;28;20043;-61
2023/12/02 00:27:19;;;;;;;1999.90;999.90;;;;;;;3.80;97.91;95863.03;5116187;28;20047;-61
2023/12/02 00:29:47;;;;;;;1999.90;999.90;;;;;;;3.84;98.68;95856.06;5115698;28;20100;-63
2023/12/02 00:32:14;;;;;;;1999.90;999.90;;;;;;;3.84;98.76;95863.81;5116210;28;20066;-61
2023/12/02 00:34:41;;;;;;;1999.90;999.90;;;;;;;3.78;98.28;95860.50;5116148;28;20043;-62
2023/12/02 00:37:08;;;;;;;1999.90;999.90;;;;;;;3.76;97.96;95858.81;5116158;28;20101;-61
2023/12/02 00:39:35;;;;;;;1999.90;999.90;;;;;;;3.74;97.64;95864.03;5115909;28;20516;-64
2023/12/02 00:42:04;;;;;;;1999.90;999.90;;;;;;;3.74;98.31;95863.19;5115982;28;20071;-63
2023/12/02 00:44:31;;;;;;;1999.90;999.90;;;;;;;3.72;98.57;95857.16;5115967;28;20139;-61
2023/12/02 00:46:58;;;;;;;1999.90;999.90;;;;;;;3.72;99.52;95860.63;5115986;28;20039;-63
2023/12/02 00:49:25;;;;;;;1999.90;999.90;;;;;;;3.73;100.00;95867.50;5115991;28;20048;-62
2023/12/02 00:51:52;;;;;;;1999.90;999.90;;;;;;;3.78;100.00;95865.66;5115871;28;20139;-63
2023/12/02 00:54:19;;;;;;;1999.90;999.90;;;;;;;3.73;99.86;95859.72;5115800;28;20047;-63
2023/12/02 00:56:46;;;;;;;1999.90;999.90;;;;;;;3.69;99.70;95865.84;5115801;28;20641;-63
2023/12/02 00:59:15;;;;;;;1999.90;999.90;;;;;;;3.71;99.21;95860.66;5115593;28;20052;-64
2023/12/02 01:01:42;;;;;;;1999.90;999.90;;;;;;;3.71;98.61;95863.25;5115621;28;20108;-60
2023/12/02 01:04:09;;;;;;;1999.90;999.90;;;;;;;3.65;98.18;95862.47;5115716;28;20043;-64
2023/12/02 01:06:36;;;;;;;1999.90;999.90;;;;;;;3.71;98.02;95871.88;5115644;28;20047;-64
2023/12/02 01:09:03;;;;;;;1999.90;999.90;;;;;;;3.65;98.01;95857.31;5115406;28;20058;-64
2023/12/02 01:11:30;;;;;;;1999.90;999.90;;;;;;;3.66;97.82;95850.41;5115390;28;20051;-62
2023/12/02 01:13:57;;;;;;;1999.90;999.90;;;;;;;3.61;97.23;95855.66;5115504;28;20071;-64
2023/12/02 01:16:25;;;;;;;1999.90;999.90;;;;;;;3.57;96.72;95861.78;5115457;28;20061;-61
2023/12/02 01:18:53;;;;;;;1999.90;999.90;;;;;;;3.59;96.24;95854.88;5115336;28;20104;-64
2023/12/02 01:21:20;;;;;;;1999.90;999.90;;;;;;;3.53;96.43;95842.06;5115204;28;20550;-62
2023/12/02 01:23:47;;;;;;;1999.90;999.90;;;;;;;3.55;96.83;95855.78;5115271;28;20093;-64
2023/12/02 01:26:13;;;;;;;1999.90;999.90;;;;;;;3.52;96.64;95853.25;5114947;28;20141;-62
2023/12/02 01:28:41;;;;;;;1999.90;999.90;;;;;;;3.57;96.51;95850.59;5115212;28;20126;-64
2023/12/02 01:31:08;;;;;;;1999.90;999.90;;;;;;;3.58;96.04;95853.16;5115049;28;20043;-61
2023/12/02 01:33:37;;;;;;;1999.90;999.90;;;;;;;3.56;96.48;95844.59;5115117;28;20481;-64
2023/12/02 01:36:04;;;;;;;1999.90;999.90;;;;;;;3.55;96.56;95832.50;5114889;28;20047;-63
2023/12/02 01:38:31;;;;;;;1999.90;999.90;;;;;;;3.49;97.18;95840.44;5114938;28;20051;-60
2023/12/02 01:40:58;;;;;;;1999.90;999.90;;;;;;;3.48;96.87;95830.94;5114077;28;20546;-61
2023/12/02 01:43:27;;;;;;;1999.90;999.90;;;;;;;3.43;97.04;95828.47;5114776;28;20062;-64
2023/12/02 01:45:55;;;;;;;1999.90;999.90;;;;;;;3.36;96.86;95827.75;5114802;28;20084;-61
2023/12/02 01:48:25;;;;;;;1999.90;999.90;;;;;;;3.33;96.92;95835.56;5114843;28;20059;-63
2023/12/02 01:50:53;;;;;;;1999.90;999.90;;;;;;;3.36;97.08;95829.47;5114704;28;20078;-60
2023/12/02 01:53:20;;;;;;;1999.90;999.90;;;;;;;3.33;98.00;95826.94;5114570;28;20130;-61
2023/12/02 01:55:47;;;;;;;1999.90;999.90;;;;;;;3.40;98.53;95833.69;5114695;28;20043;-60
2023/12/02 01:58:15;;;;;;;1999.90;999.90;;;;;;;3.48;99.06;95828.38;5114553;28;20130;-61
2023/12/02 02:00:42;;;;;;;1999.90;999.90;;;;;;;3.48;98.96;95833.53;5114257;28;20047;-63
2023/12/02 02:03:10;;;;;;;1999.90;999.90;;;;;;;3.53;98.67;95840.31;5114411;28;20043;-63
2023/12/02 02:05:37;;;;;;;1999.90;999.90;;;;;;;3.49;97.68;95838.69;5114390;28;20083;-60
2023/12/02 02:08:06;;;;;;;1999.90;999.90;;;;;;;3.40;97.83;95828.50;5114459;28;20044;-61
2023/12/02 02:10:33;;;;;;;1999.90;999.90;;;;;;;3.35;97.37;95833.81;5114517;28;20047;-62
2023/12/02 02:13:00;;;;;;;1999.90;999.90;;;;;;;3.25;97.63;95837.47;5114159;28;20047;-62
2023/12/02 02:15:27;;;;;;;1999.90;999.90;;;;;;;3.29;98.41;95829.59;5114080;28;20497;-62
2023/12/02 02:17:54;;;;;;;1999.90;999.90;;;;;;;3.35;98.50;95822.59;5114108;28;20044;-61
2023/12/02 02:20:21;;;;;;;1999.90;999.90;;;;;;;3.37;98.23;95819.09;5114073;28;20082;-62
2023/12/02 02:22:50;;;;;;;1999.90;999.90;;;;;;;3.39;98.79;95816.47;5114142;28;20108;-61
2023/12/02 02:25:17;;;;;;;1999.90;999.90;;;;;;;3.34;98.52;95808.81;5114128;28;20043;-64
2023/12/02 02:27:44;;;;;;;1999.90;999.90;;;;;;;3.38;99.29;95815.66;5113761;28;20134;-63
2023/12/02 02:30:11;;;;;;;1999.90;999.90;;;;;;;3.46;99.04;95815.47;5114049;28;20048;-60
2023/12/02 02:32:38;;;;;;;1999.90;999.90;;;;;;;3.47;97.87;95803.41;5113932;28;20101;-61
2023/12/02 02:35:06;;;;;;;1999.90;999.90;;;;;;;3.37;97.89;95792.41;5114050;28;20050;-64
2023/12/02 02:37:33;;;;;;;1999.90;999.90;;;;;;;3.44;99.88;95793.97;5113974;28;20075;-63
2023/12/02 02:40:01;;;;;;;1999.90;999.90;;;;;;;3.40;99.85;95784.56;5113667;28;20047;-61
2023/12/02 02:42:28;;;;;;;1999.90;999.90;;;;;;;3.32;99.79;95771.81;5113849;28;20650;-63
2023/12/02 02:44:55;;;;;;;1999.90;999.90;;;;;;;3.33;99.70;95780.41;5113758;28;20085;-64
2023/12/02 02:47:22;;;;;;;1999.90;999.90;;;;;;;3.37;99.91;95788.06;5113829;28;20408;-60
2023/12/02 02:49:49;;;;;;;1999.90;999.90;;;;;;;3.41;99.05;95788.88;5113731;28;20046;-62
2023/12/02 02:52:16;;;;;;;1999.90;999.90;;;;;;;3.46;99.85;95789.59;5113384;28;20082;-62
2023/12/02 02:54:43;;;;;;;1999.90;999.90;;;;;;;3.53;99.51;95788.59;5113590;28;20083;-62
2023/12/02 02:57:12;;;;;;;1999.90;999.90;;;;;;;3.49;99.35;95799.06;5113481;28;20481;-62
2023/12/02 02:59:39;;;;;;;1999.90;999.90;;;;;;;3.43;99.28;95791.41;5113624;28;20083;-62
2023/12/02 03:02:06;;;;;;;1999.90;999.90;;;;;;;3.49;98.89;95799.06;5113566;28;20079;-63
2023/12/02 03:04:33;;;;;;;1999.90;999.90;;;;;;;3.43;98.70;95796.59;5113451;28;20568;-61
2023/12/02 03:07:00;;;;;;;1999.90;999.90;;;;;;;3.40;98.09;95803.53;5113420;28;20101;-62
2023/12/02 03:09:27;;;;;;;1999.90;999.90;;;;;;;3.40;97.40;95802.66;5113599;28;20047;-61
2023/12/02 03:11:54;;;;;;;1999.90;999.90;;;;;;;3.37;98.29;95808.75;5113389;28;20044;-62
2023/12/02 03:14:22;;;;;;;1999.90;999.90;;;;;;;3.43;98.70;95805.19;5113401;28;20138;-61
2023/12/02 03:16:49;;;;;;;1999.90;999.90;;;;;;;3.39;98.74;95794.06;5113361;28;20090;-62
2023/12/02 03:19:16;;;;;;;1999.90;999.90;;;;;;;3.30;98.55;95783.91;5113191;28;20048;-64
2023/12/02 03:21:43;;;;;;;1999.90;999.90;;;;;;;3.31;99.62;95779.59;5113327;28;20062;-61
2023/12/02 03:24:10;;;;;;;1999.90;999.90;;;;;;;3.27;99.66;95769.34;5113388;28;20047;-63
2023/12/02 03:26:38;;;;;;;1999.90;999.90;;;;;;;3.32;99.50;95770.97;5113035;28;20122;-62
2023/12/02 03:29:05;;;;;;;1999.90;999.90;;;;;;;3.31;100.00;95764.94;5113196;28;20130;-63
2023/12/02 03:31:34;;;;;;;1999.90;999.90;;;;;;;3.26;99.99;95771.94;5113197;28;20092;-62
2023/12/02 03:34:01;;;;;;;1999.90;999.90;;;;;;;3.24;99.35;95771.97;5113227;28;20043;-64
2023/12/02 03:36:28;;;;;;;1999.90;999.90;;;;;;;3.21;98.97;95766.00;5113324;28;20382;-64
2023/12/02 03:38:55;;;;;;;1999.90;999.90;;;;;;;3.25;99.24;95776.25;5113059;28;20044;-64
2023/12/02 03:41:22;;;;;;;1999.90;999.90;;;;;;;3.29;99.12;95774.47;5113319;28;20044;-63
2023/12/02 03:43:49;;;;;;;1999.90;999.90;;;;;;;3.29;99.70;95770.13;5113025;28;20551;-62
2023/12/02 03:46:16;;;;;;;1999.90;999.90;;;;;;;3.34;99.52;95774.38;5113170;28;20047;-60
2023/12/02 03:48:45;;;;;;;1999.90;999.90;;;;;;;3.38;99.71;95769.09;5113129;28;20055;-64
2023/12/02 03:51:12;;;;;;;1999.90;999.90;;;;;;;3.29;99.33;95771.88;5113132;28;20477;-62
2023/12/02 03:53:39;;;;;;;1999.90;999.90;;;;;;;3.33;99.81;95770.06;5113084;28;20044;-62
2023/12/02 03:56:07;;;;;;;1999.90;999.90;;;;;;;3.35;99.25;95768.31;5112920;28;20489;-61
2023/12/02 03:58:34;;;;;;;1999.90;999.90;;;;;;;3.37;99.49;95774.31;5112934;28;20051;-61
2023/12/02 04:01:02;;;;;;;1999.90;999.90;;;;;;;3.44;100.00;95775.88;5112895;28;20054;-62
2023/12/02 04:03:29;;;;;;;1999.90;999.90;;;;;;;3.50;100.00;95777.47;5112951;28;20132;-62
2023/12/02 04:05:57;;;;;;;1999.90;999.90;;;;;;;3.58;100.00;95772.97;5116049;28;20096;-60
2023/12/02 04:08:24;;;;;;;1999.90;999.90;;;;;;;3.62;100.00;95764.28;5116798;28;20043;-62
2023/12/02 04:10:52;;;;;;;1999.90;999.90;;;;;;;3.66;100.00;95754.69;5116662;28;20463;-61
2023/12/02 04:13:20;;;;;;;1999.90;999.90;;;;;;;3.63;100.00;95768.56;5116687;28;20051;-64
2023/12/02 04:15:47;;;;;;;1999.90;999.90;;;;;;;3.62;100.00;95758.25;5116626;28;20040;-61
2023/12/02 04:18:14;;;;;;;1999.90;999.90;;;;;;;3.60;99.85;95762.59;5116576;28;20051;-62
2023/12/02 04:20:41;;;;;;;1999.90;999.90;;;;;;;3.59;99.17;95761.75;5116396;28;20108;-63
2023/12/02 04:23:10;;;;;;;1999.90;999.90;;;;;;;3.52;99.01;95766.19;5116495;28;20081;-62
2023/12/02 04:25:38;;;;;;;1999.90;999.90;;;;;;;3.50;98.94;95764.53;5116393;28;20043;-63
2023/12/02 04:28:05;;;;;;;1999.90;999.90;;;;;;;3.54;98.69;95761.84;5116159;28;20062;-64
2023/12/02 04:30:32;;;;;;;1999.90;999.90;;;;;;;3.55;98.52;95749.75;5116270;28;20444;-64
2023/12/02 04:32:59;;;;;;;1999.90;999.90;;;;;;;3.41;98.34;95745.75;5116223;28;20052;-62
2023/12/02 04:35:26;;;;;;;1999.90;999.90;;;;;;;3.34;98.37;95748.53;5116265;28;20578;-61
2023/12/02 04:37:53;;;;;;;1999.90;999.90;;;;;;;3.35;98.42;95748.50;5116113;28;20410;-64
2023/12/02 04:40:22;;;;;;;1999.90;999.90;;;;;;;3.36;98.53;95749.31;5116106;28;20094;-62
2023/12/02 04:42:49;;;;;;;1999.90;999.90;;;;;;;3.38;98.89;95745.84;5116145;28;20058;-63
2023/12/02 04:45:16;;;;;;;1999.90;999.90;;;;;;;3.32;98.49;95745.09;5116397;28;20051;-64
2023/12/02 04:47:43;;;;;;;1999.90;999.90;;;;;;;3.26;98.64;95751.28;5115868;28;20206;-62
2023/12/02 04:50:11;;;;;;;1999.90;999.90;;;;;;;3.28;98.96;95752.06;5115814;28;20040;-61
2023/12/02 04:52:38;;;;;;;1999.90;999.90;;;;;;;3.24;98.81;95747.84;5115764;28;20077;-63
2023/12/02 04:55:06;;;;;;;1999.90;999.90;;;;;;;3.26;97.88;95749.53;5115849;28;20418;-62
2023/12/02 04:57:35;;;;;;;1999.90;999.90;;;;;;;3.24;97.77;95740.09;5115783;28;20075;-61
2023/12/02 05:00:04;;;;;;;1999.90;999.90;;;;;;;3.21;97.94;95735.84;5115573;28;20043;-64
2023/12/02 05:02:31;;;;;;;1999.90;999.90;;;;;;;3.27;98.84;95740.91;5115606;28;20088;-60
2023/12/02 05:04:58;;;;;;;1999.90;999.90;;;;;;;3.33;99.31;95752.84;5115577;28;20105;-63
2023/12/02 05:07:25;;;;;;;1999.90;999.90;;;;;;;3.37;98.99;95753.63;5115397;28;20476;-63
2023/12/02 05:09:52;;;;;;;1999.90;999.90;;;;;;;3.32;98.85;95760.63;5115557;28;20089;-62
2023/12/02 05:12:19;;;;;;;1999.90;999.90;;;;;;;3.31;99.12;95752.00;5115413;28;20146;-61
2023/12/02 05:14:47;;;;;;;1999.90;999.90;;;;;;;3.28;99.02;95765.84;5115532;28;20051;-61
2023/12/02 05:17:14;;;;;;;1999.90;999.90;;;;;;;3.27;98.86;95781.41;5115355;28;20067;-61
2023/12/02 05:19:42;;;;;;;1999.90;999.90;;;;;;;3.24;97.83;95781.47;5115385;28;20126;-62
2023/12/02 05:22:09;;;;;;;1999.90;999.90;;;;;;;3.12;98.55;95772.22;5115388;28;20164;-61
2023/12/02 05:24:38;;;;;;;1999.90;999.90;;;;;;;3.10;99.20;95768.84;5115209;28;20068;-62
2023/12/02 05:27:05;;;;;;;1999.90;999.90;;;;;;;3.15;99.48;95754.06;5114854;28;20058;-61
2023/12/02 05:29:32;;;;;;;1999.90;999.90;;;;;;;3.11;99.35;95747.28;5115137;28;20092;-60
2023/12/02 05:32:01;;;;;;;1999.90;999.90;;;;;;;3.11;100.00;95755.03;5115039;28;20068;-61
2023/12/02 05:34:28;;;;;;;1999.90;999.90;;;;;;;3.19;100.00;95745.34;5115022;28;20043;-61
2023/12/02 05:36:55;;;;;;;1999.90;999.90;;;;;;;3.22;100.00;95732.38;5115119;28;20135;-61
2023/12/02 05:39:23;;;;;;;1999.90;999.90;;;;;;;3.30;100.00;95747.72;5114902;28;20468;-63
2023/12/02 05:41:50;;;;;;;1999.90;999.90;;;;;;;3.40;100.00;95743.19;5114799;28;20048;-63
2023/12/02 05:44:17;;;;;;;1999.90;999.90;;;;;;;3.39;100.00;95749.25;5114875;28;20048;-62
2023/12/02 05:46:44;;;;;;;1999.90;999.90;;;;;;;3.38;100.00;95753.59;5114773;28;20087;-62
2023/12/02 05:49:13;;;;;;;1999.90;999.90;;;;;;;3.36;99.63;95747.59;5114718;28;20048;-60
2023/12/02 05:51:40;;;;;;;1999.90;999.90;;;;;;;3.34;99.22;95743.34;5114730;28;20086;-62
2023/12/02 05:54:08;;;;;;;1999.90;999.90;;;;;;;3.27;99.15;95743.47;5114606;28;20050;-64
2023/12/02 05:56:36;;;;;;;1999.90;999.90;;;;;;;3.32;100.00;95739.94;5114473;28;20139;-60
2023/12/02 05:59:03;;;;;;;1999.90;999.90;;;;;;;3.47;100.00;95739.59;5114504;28;20048;-60
2023/12/02 06:01:31;;;;;;;1999.90;999.90;;;;;;;3.61;100.00;95749.63;5114519;28;20052;-63
2023/12/02 06:03:58;;;;;;;1999.90;999.90;;;;;;;3.69;100.00;95736.50;5114515;28;20570;-62
2023/12/02 06:06:26;;;;;;;1999.90;999.90;;;;;;;3.88;100.00;95739.50;5114415;28;20050;-59
2023/12/02 06:08:54;;;;;;;1999.90;999.90;;;;;;;4.41;100.00;95740.78;5114407;28;20131;-62
2023/12/02 06:11:21;;;;;;;1999.90;999.90;;;;;;;4.93;100.00;95736.78;5114367;28;20055;-61
2023/12/02 06:13:48;;;;;;;1999.90;999.90;;;;;;;5.56;100.00;95762.63;5114256;28;20044;-62
2023/12/02 06:16:15;;;;;;;1999.90;999.90;;;;;;;6.51;98.24;95773.53;5114087;28;20051;-61
2023/12/02 06:18:43;;;;;;;1999.90;999.90;;;;;;;8.05;89.79;95774.84;5114247;28;20091;-63
2023/12/02 06:21:12;;;;;;;1999.90;999.90;;;;;;;9.81;81.45;95766.47;5114004;28;20075;-64
2023/12/02 06:23:42;;;;;;;1999.90;999.90;;;;;;;11.27;71.99;95779.34;5114125;28;20051;-63
2023/12/02 06:26:10;;;;;;;1999.90;999.90;;;;;;;12.72;63.94;95778.41;5113891;28;20099;-61
2023/12/02 06:28:37;;;;;;;1999.90;999.90;;;;;;;14.19;60.86;95775.63;5113583;28;20463;-61
2023/12/02 06:31:04;;;;;;;1999.90;999.90;;;;;;;15.69;58.05;95775.34;5113938;28;20040;-61
2023/12/02 06:33:32;;;;;;;1999.90;999.90;;;;;;;16.83;48.55;95746.91;5113968;28;20052;-60
2023/12/02 06:35:59;;;;;;;1999.90;999.90;;;;;;;17.84;45.95;95754.16;5114011;28;20047;-64
2023/12/02 06:38:27;;;;;;;1999.90;999.90;;;;;;;18.52;44.67;95771.69;5113764;28;20485;-62
2023/12/02 06:40:56;;;;;;;1999.90;999.90;;;;;;;19.34;41.72;95773.78;5113709;28;20065;-62
2023/12/02 06:43:24;;;;;;;1999.90;999.90;;;;;;;19.11;41.33;95773.91;5113742;28;20550;-63
2023/12/02 06:45:52;;;;;;;1999.90;999.90;;;;;;;18.28;43.02;95775.38;5113893;28;20127;-62
2023/12/02 06:48:23;;;;;;;1999.90;999.90;;;;;;;17.27;44.58;95785.88;5113685;28;20047;-63
2023/12/02 06:50:51;;;;;;;1999.90;999.90;;;;;;;16.17;47.45;95793.06;5113681;28;20052;-64
2023/12/02 06:53:22;;;;;;;1999.90;999.90;;;;;;;15.45;49.75;95800.69;5113593;28;20056;-63
2023/12/02 06:55:49;;;;;;;1999.90;999.90;;;;;;;15.25;50.75;95809.97;5113497;28;20409;-63
2023/12/02 06:58:18;;;;;;;1999.90;999.90;;;;;;;15.16;50.81;95793.84;5113591;28;20047;-62
2023/12/02 07:00:49;;;;;;;1999.90;999.90;;;;;;;14.98;51.45;95779.28;5113503;28;20066;-61
2023/12/02 07:03:17;;;;;;;1999.90;999.90;;;;;;;14.62;52.93;95763.22;5113499;28;20044;-62
2023/12/02 07:05:45;;;;;;;1999.90;999.90;;;;;;;14.30;53.97;95756.50;5113565;28;20524;-59
2023/12/02 07:08:13;;;;;;;1999.90;999.90;;;;;;;14.22;55.59;95761.44;5113406;28;20083;-60
2023/12/02 07:10:40;;;;;;;1999.90;999.90;;;;;;;14.23;56.59;95750.81;5113274;28;20452;-63
2023/12/02 07:13:09;;;;;;;1999.90;999.90;;;;;;;13.87;56.62;95745.19;5113305;28;20445;-64
2023/12/02 07:15:38;;;;;;;1999.90;999.90;;;;;;;13.48;58.52;95752.84;5113388;28;20050;-63
2023/12/02 07:18:06;;;;;;;1999.90;999.90;;;;;;;13.26;59.63;95758.59;5113433;28;20174;-61
2023/12/02 07:20:34;;;;;;;1999.90;999.90;;;;;;;13.17;60.47;95759.13;5113321;28;20070;-62
2023/12/02 07:23:01;;;;;;;1999.90;999.90;;;;;;;13.16;61.35;95762.72;5113320;28;20048;-62
2023/12/02 07:25:28;;;;;;;1999.90;999.90;;;;;;;13.01;61.54;95760.91;5113249;28;20052;-62
2023/12/02 07:27:56;;;;;;;1999.90;999.90;;;;;;;12.82;62.44;95776.91;5113168;28;20132;-62
2023/12/02 07:30:23;;;;;;;1999.90;999.90;;;;;;;12.68;63.15;95761.16;5113174;28;20040;-63
2023/12/02 07:32:52;;;;;;;1999.90;999.90;;;;;;;12.67;63.61;95765.56;5113334;28;20048;-60
2023/12/02 07:35:19;;;;;;;1999.90;999.90;;;;;;;12.77;64.05;95766.69;5113262;28;20046;-64
2023/12/02 07:37:49;;;;;;;1999.90;999.90;;;;;;;13.31;63.36;95769.66;5113299;28;20094;-62
2023/12/02 07:40:16;;;;;;;1999.90;999.90;;;;;;;14.02;61.42;95784.59;5115317;28;20039;-62
2023/12/02 07:42:43;;;;;;;1999.90;999.90;;;;;;;14.78;59.67;95806.03;5117157;28;20412;-63
2023/12/02 07:45:12;;;;;;;1999.90;999.90;;;;;;;15.23;57.49;95823.22;5117034;28;20482;-65
2023/12/02 07:47:40;;;;;;;1999.90;999.90;;;;;;;16.06;54.77;95830.75;5117153;28;20043;-62
2023/12/02 07:50:14;;;;;;;1999.90;999.90;;;;;;;16.73;51.67;95822.47;5117118;28;20090;-63
2023/12/02 07:52:41;;;;;;;1999.90;999.90;;;;;;;17.38;50.44;95820.28;5117033;28;20119;-62
2023/12/02 07:55:10;;;;;;;1999.90;999.90;;;;;;;18.19;48.79;95832.50;5117050;28;20062;-60
2023/12/02 07:57:37;;;;;;;1999.90;999.90;;;;;;;18.80;47.13;95825.00;5116960;28;20043;-64
2023/12/02 08:00:09;;;;;;;1999.90;999.90;;;;;;;18.92;46.06;95817.00;5116885;28;20444;-64
2023/12/02 08:02:36;;;;;;;1999.90;999.90;;;;;;;18.32;47.22;95807.72;5116784;28;20083;-61
2023/12/02 08:05:04;;;;;;;1999.90;999.90;;;;;;;17.64;49.11;95806.81;5116788;28;20069;-62
2023/12/02 08:07:34;;;;;;;1999.90;999.90;;;;;;;16.87;51.12;95790.59;5116662;28;20432;-62
2023/12/02 08:10:01;;;;;;;1999.90;999.90;;;;;;;16.35;52.79;95793.53;5116691;28;20047;-62
2023/12/02 08:12:29;;;;;;;1999.90;999.90;;;;;;;15.77;55.03;95804.63;5116548;28;20070;-61
2023/12/02 08:14:56;;;;;;;1999.90;999.90;;;;;;;15.15;57.04;95800.03;5116611;28;20093;-61
2023/12/02 08:17:23;;;;;;;1999.90;999.90;;;;;;;14.53;59.19;95798.88;5116502;28;20093;-64
2023/12/02 08:19:50;;;;;;;1999.90;999.90;;;;;;;14.12;60.87;95790.94;5116389;28;20040;-61
2023/12/02 08:22:24;;;;;;;1999.90;999.90;;;;;;;13.76;62.26;95782.69;5116312;28;20062;-60
2023/12/02 08:24:52;;;;;;;1999.90;999.90;;;;;;;13.51;63.02;95786.84;5116500;28;20048;-61
2023/12/02 08:27:21;;;;;;;1999.90;999.90;;;;;;;13.34;64.02;95779.97;5115990;28;20047;-62
2023/12/02 08:29:48;;;;;;;1999.90;999.90;;;;;;;13.16;65.39;95783.72;5116395;28;20047;-62
2023/12/02 08:32:16;;;;;;;1999.90;999.90;;;;;;;12.94;67.13;95782.41;5116465;28;20094;-61
2023/12/02 08:34:44;;;;;;;1999.90;999.90;;;;;;;12.67;69.32;95776.03;5116241;28;20075;-62
2023/12/02 08:37:13;;;;;;;1999.90;999.90;;;;;;;12.38;70.55;95782.03;5116273;28;20048;-63
2023/12/02 08:39:44;;;;;;;1999.90;999.90;;;;;;;12.24;71.67;95789.88;5116182;28;20046;-61
2023/12/02 08:42:16;;;;;;;1999.90;999.90;;;;;;;12.03;72.42;95799.75;5115999;28;20129;-63
2023/12/02 08:44:45;;;;;;;1999.90;999.90;;;;;;;11.93;73.66;95817.75;5116088;28;20052;-63
2023/12/02 08:47:12;;;;;;;1999.90;999.90;;;;;;;11.83;74.80;95822.69;5116257;28;20048;-63
2023/12/02 08:49:40;;;;;;;1999.90;999.90;;;;;;;11.81;75.69;95822.75;5115810;28;20130;-63
2023/12/02 08:52:11;;;;;;;1999.90;999.90;;;;;;;11.78;75.71;95835.16;5115194;28;20054;-61
2023/12/02 08:54:39;;;;;;;1999.90;999.90;;;;;;;11.81;75.99;95824.53;5115735;28;20047;-63
2023/12/02 08:57:07;;;;;;;1999.90;999.90;;;;;;;11.82;75.86;95815.72;5115784;28;20050;-61
2023/12/02 08:59:36;;;;;;;1999.90;999.90;;;;;;;11.85;75.46;95815.56;5115559;28;20552;-63
2023/12/02 09:02:05;;;;;;;1999.90;999.90;;;;;;;11.79;76.03;95797.53;5115589;28;20051;-62
2023/12/02 09:04:33;;;;;;;1999.90;999.90;;;;;;;11.79;75.95;95794.94;5114986;28;20109;-63
2023/12/02 09:07:01;;;;;;;1999.90;999.90;;;;;;;11.65;77.17;95790.47;5115659;28;20048;-63
2023/12/02 09:09:29;;;;;;;1999.90;999.90;;;;;;;11.55;78.16;95792.72;5115525;28;20069;-60
2023/12/02 09:11:57;;;;;;;1999.90;999.90;;;;;;;11.41;79.36;95790.84;5115499;28;20067;-63
2023/12/02 09:14:24;;;;;;;1999.90;999.90;;;;;;;11.33;79.81;95783.41;5115526;28;20109;-64
2023/12/02 09:16:52;;;;;;;1999.90;999.90;;;;;;;11.40;80.13;95770.81;5115410;28;20101;-61
2023/12/02 09:19:55;;;;;;;1999.90;999.90;;;;;;;11.48;80.57;95773.88;5115445;28;20104;-61
2023/12/02 09:22:46;;;;;;;1999.90;999.90;;;;;;;11.50;81.71;95759.75;5115284;28;20130;-63
2023/12/02 09:25:26;;;;;;;1999.90;999.90;;;;;;;11.55;81.79;95761.28;5115334;28;20162;-64
2023/12/02 09:28:17;;;;;;;1999.90;999.90;;;;;;;11.59;82.63;95754.97;5115114;28;20055;-61
2023/12/02 09:30:57;;;;;;;1999.90;999.90;;;;;;;11.68;82.63;95746.59;5115118;28;20055;-63
2023/12/02 09:33:26;;;;;;;1999.90;999.90;;;;;;;11.79;81.79;95735.53;5115089;28;20047;-61
2023/12/02 09:35:57;;;;;;;1999.90;999.90;;;;;;;11.86;81.08;95718.53;5115022;28;20280;-63
2023/12/02 09:38:25;;;;;;;1999.90;999.90;;;;;;;11.95;80.30;95719.78;5115005;28;20055;-62
2023/12/02 09:41:12;;;;;;;1999.90;999.90;;;;;;;12.07;80.05;95725.31;5114915;28;20457;-63
2023/12/02 09:43:52;;;;;;;1999.90;999.90;;;;;;;12.16;79.69;95724.75;5114760;28;20390;-62
2023/12/02 09:46:33;;;;;;;1999.90;999.90;;;;;;;12.15;80.35;95733.56;5114916;28;20097;-61
2023/12/02 09:49:44;;;;;;;1999.90;999.90;;;;;;;12.07;81.67;95735.78;5114730;28;20097;-63
2023/12/02 09:52:33;;;;;;;1999.90;999.90;;;;;;;11.95;82.74;95722.41;5114698;28;20436;-63
2023/12/02 09:55:10;;;;;;;1999.90;999.90;;;;;;;12.04;82.31;95717.56;5114599;28;20047;-61
2023/12/02 09:57:49;;;;;;;1999.90;999.90;;;;;;;12.09;81.38;95703.31;5114585;28;20503;-62
2023/12/02 10:00:26;;;;;;;1999.90;999.90;;;;;;;12.15;80.63;95711.72;5114535;28;20040;-61
2023/12/02 10:03:35;;;;;;;1999.90;999.90;;;;;;;12.19;79.94;95705.41;5113580;28;20048;-62
2023/12/02 10:06:19;;;;;;;1999.90;999.90;;;;;;;12.21;79.42;95703.50;5078099;28;20138;-61
2023/12/02 10:09:04;;;;;;;1999.90;999.90;;;;;;;12.21;79.60;95709.63;5114332;28;20056;-60
2023/12/02 10:11:47;;;;;;;1999.90;999.90;;;;;;;12.21;79.59;95727.09;5114285;28;20148;-61
2023/12/02 10:14:24;;;;;;;1999.90;999.90;;;;;;;12.13;80.57;95723.16;5114239;28;20094;-62
2023/12/02 10:16:55;;;;;;;1999.90;999.90;;;;;;;12.10;80.74;95712.84;5114316;28;20051;-61
2023/12/02 10:19:42;;;;;;;1999.90;999.90;;;;;;;12.09;80.44;95697.19;5114254;28;20075;-64
2023/12/02 10:22:21;;;;;;;1999.90;999.90;;;;;;;12.08;79.69;95693.75;5114122;28;20051;-62
2023/12/02 10:25:01;;;;;;;1999.90;999.90;;;;;;;12.16;79.74;95700.34;5114070;28;20044;-61
2023/12/02 10:27:36;;;;;;;1999.90;999.90;;;;;;;12.19;79.23;95703.59;5113763;28;20502;-63
2023/12/02 10:30:10;;;;;;;1999.90;999.90;;;;;;;12.22;78.91;95707.84;5113005;28;20542;-61
2023/12/02 10:32:52;;;;;;;1999.90;999.90;;;;;;;12.23;78.75;95694.66;5114061;28;20047;-60
2023/12/02 10:35:24;;;;;;;1999.90;999.90;;;;;;;12.25;78.77;95697.16;5113891;28;20040;-61
2023/12/02 10:38:03;;;;;;;1999.90;999.90;;;;;;;12.26;78.98;95693.63;5113576;28;20043;-63
2023/12/02 10:40:42;;;;;;;1999.90;999.90;;;;;;;12.25;79.13;95699.78;5112657;28;20507;-62
2023/12/02 10:43:20;;;;;;;1999.90;999.90;;;;;;;12.24;79.59;95691.09;5097657;28;20083;-62
2023/12/02 10:45:54;;;;;;;1999.90;999.90;;;;;;;12.21;80.24;95674.69;5095335;28;20048;-64
2023/12/02 10:48:28;;;;;;;1999.90;999.90;;;;;;;12.18;80.90;95674.84;5110134;28;20040;-63
2023/12/02 10:50:59;;;;;;;1999.90;999.90;;;;;;;12.15;81.43;95660.16;5113577;28;20043;-61
2023/12/02 10:53:37;;;;;;;1999.90;999.90;;;;;;;12.17;81.11;95660.91;5113773;28;20055;-63
2023/12/02 10:56:16;;;;;;;1999.90;999.90;;;;;;;12.16;81.32;95661.84;5113597;28;20047;-61
2023/12/02 10:58:46;;;;;;;1999.90;999.90;;;;;;;12.19;81.32;95639.84;5113530;28;20565;-62
2023/12/02 11:01:20;;;;;;;1999.90;999.90;;;;;;;12.23;81.49;95642.22;5113448;28;20222;-61
2023/12/02 11:03:52;;;;;;;1999.90;999.90;;;;;;;12.25;81.33;95637.72;5113540;28;20043;-63
2023/12/02 11:06:29;;;;;;;1999.90;999.90;;;;;;;12.29;81.13;95643.63;5113535;28;20055;-61